createdAt,value
2022-10-06T00:00:00.333Z,101369
2022-10-06T00:01:01.549Z,101369
2022-10-06T00:02:00.272Z,101372
2022-10-06T00:03:00.446Z,101372
2022-10-06T00:04:00.307Z,101372
2022-10-06T00:05:00.326Z,101372
2022-10-06T00:06:01.263Z,101372
2022-10-06T00:07:00.376Z,101376
2022-10-06T00:08:00.343Z,101376
2022-10-06T00:09:00.323Z,101376
2022-10-06T00:10:00.317Z,101376
2022-10-06T00:11:00.763Z,101376
2022-10-06T00:12:00.287Z,101390
2022-10-06T00:13:00.767Z,101390
2022-10-06T00:14:00.288Z,101390
2022-10-06T00:15:00.294Z,101390
2022-10-06T00:16:00.516Z,101390
2022-10-06T00:17:00.358Z,101394
2022-10-06T00:18:00.885Z,101394
2022-10-06T00:19:00.312Z,101394
2022-10-06T00:20:00.380Z,101394
2022-10-06T00:21:00.358Z,101394
2022-10-06T00:22:00.343Z,101393
2022-10-06T00:23:00.306Z,101393
2022-10-06T00:24:00.330Z,101393
2022-10-06T00:25:00.464Z,101393
2022-10-06T00:26:00.409Z,101393
2022-10-06T00:27:00.418Z,101396
2022-10-06T00:28:00.689Z,101396
2022-10-06T00:29:01.367Z,101396
2022-10-06T00:30:00.426Z,101396
2022-10-06T00:31:01.129Z,101396
2022-10-06T00:32:00.296Z,101400
2022-10-06T00:33:01.169Z,101400
2022-10-06T00:34:00.356Z,101400
2022-10-06T00:35:00.420Z,101400
2022-10-06T00:36:00.301Z,101400
2022-10-06T00:37:00.298Z,101411
2022-10-06T00:38:00.534Z,101411
2022-10-06T00:39:00.306Z,101411
2022-10-06T00:40:00.439Z,101411
2022-10-06T00:41:00.372Z,101411
2022-10-06T00:42:00.311Z,101426
2022-10-06T00:43:02.321Z,101426
2022-10-06T00:44:00.508Z,101426
2022-10-06T00:45:02.427Z,101426
2022-10-06T00:46:00.505Z,101426
2022-10-06T00:47:00.719Z,101440
2022-10-06T00:48:02.525Z,101440
2022-10-06T00:49:06.592Z,101440
2022-10-06T00:50:00.389Z,101440
2022-10-06T00:51:00.497Z,101440
2022-10-06T00:52:02.985Z,101455
2022-10-06T00:53:00.921Z,101455
2022-10-06T00:54:01.252Z,101455
2022-10-06T00:55:00.503Z,101455
2022-10-06T00:56:00.331Z,101455
2022-10-06T00:57:00.340Z,101469
2022-10-06T00:58:00.509Z,101469
2022-10-06T00:59:00.284Z,101469
2022-10-06T01:00:00.391Z,101469
2022-10-06T01:01:00.675Z,101469
2022-10-06T01:02:03.002Z,101481
2022-10-06T01:03:05.417Z,101481
2022-10-06T01:04:05.013Z,101481
2022-10-06T01:05:02.083Z,101481
2022-10-06T01:06:00.907Z,101481
2022-10-06T01:07:00.773Z,101490
2022-10-06T01:08:00.550Z,101490
2022-10-06T01:09:00.390Z,101490
2022-10-06T01:10:00.345Z,101490
2022-10-06T01:11:00.361Z,101490
2022-10-06T01:12:02.314Z,101492
2022-10-06T01:13:01.072Z,101492
2022-10-06T01:14:00.290Z,101492
2022-10-06T01:15:00.776Z,101492
2022-10-06T01:16:06.111Z,101492
2022-10-06T01:17:06.187Z,101498
2022-10-06T01:18:03.181Z,101498
2022-10-06T01:19:01.426Z,101498
2022-10-06T01:20:05.258Z,101498
2022-10-06T01:21:06.013Z,101498
2022-10-06T01:22:02.515Z,101502
2022-10-06T01:23:02.327Z,101502
2022-10-06T01:24:01.160Z,101502
2022-10-06T01:25:01.002Z,101502
2022-10-06T01:26:03.667Z,101502
2022-10-06T01:27:00.518Z,101511
2022-10-06T01:28:01.916Z,101511
2022-10-06T01:29:00.477Z,101511
2022-10-06T01:30:00.681Z,101511
2022-10-06T01:31:00.965Z,101511
2022-10-06T01:32:00.585Z,101507
2022-10-06T01:33:00.342Z,101507
2022-10-06T01:34:00.323Z,101507
2022-10-06T01:35:00.313Z,101507
2022-10-06T01:36:00.292Z,101507
2022-10-06T01:37:00.322Z,101501
2022-10-06T01:38:00.339Z,101501
2022-10-06T01:39:00.306Z,101501
2022-10-06T01:40:00.400Z,101501
2022-10-06T01:41:00.497Z,101501
2022-10-06T01:42:00.319Z,101501
2022-10-06T01:43:00.299Z,101501
2022-10-06T01:44:00.288Z,101501
2022-10-06T01:45:00.769Z,101501
2022-10-06T01:46:00.337Z,101501
2022-10-06T01:47:00.486Z,101500
2022-10-06T01:48:00.280Z,101500
2022-10-06T01:49:00.302Z,101500
2022-10-06T01:50:00.319Z,101500
2022-10-06T01:51:00.281Z,101500
2022-10-06T01:52:00.642Z,101499
2022-10-06T01:53:00.349Z,101499
2022-10-06T01:54:00.288Z,101499
2022-10-06T01:55:00.311Z,101499
2022-10-06T01:56:00.287Z,101499
2022-10-06T01:57:00.452Z,101506
2022-10-06T01:58:00.283Z,101506
2022-10-06T01:59:00.321Z,101506
2022-10-06T02:00:00.337Z,101506
2022-10-06T02:01:04.561Z,101506
2022-10-06T02:02:00.396Z,101517
2022-10-06T02:03:00.499Z,101517
2022-10-06T02:04:00.379Z,101517
2022-10-06T02:05:00.296Z,101517
2022-10-06T02:06:00.471Z,101517
2022-10-06T02:07:00.370Z,101515
2022-10-06T02:08:01.029Z,101515
2022-10-06T02:09:00.307Z,101515
2022-10-06T02:10:00.408Z,101515
2022-10-06T02:11:08.495Z,101515
2022-10-06T02:12:00.289Z,101518
2022-10-06T02:13:00.307Z,101518
2022-10-06T02:14:00.319Z,101518
2022-10-06T02:15:00.309Z,101518
2022-10-06T02:16:00.377Z,101518
2022-10-06T02:17:00.316Z,101521
2022-10-06T02:18:00.308Z,101521
2022-10-06T02:19:00.602Z,101521
2022-10-06T02:20:00.322Z,101521
2022-10-06T02:21:01.123Z,101521
2022-10-06T02:22:00.497Z,101520
2022-10-06T02:23:00.273Z,101520
2022-10-06T02:24:00.378Z,101520
2022-10-06T02:25:00.292Z,101520
2022-10-06T02:26:01.598Z,101520
2022-10-06T02:27:00.300Z,101520
2022-10-06T02:28:00.434Z,101520
2022-10-06T02:29:00.359Z,101520
2022-10-06T02:30:00.307Z,101520
2022-10-06T02:31:02.027Z,101520
2022-10-06T02:32:00.358Z,101524
2022-10-06T02:33:00.272Z,101524
2022-10-06T02:34:00.278Z,101524
2022-10-06T02:35:00.465Z,101524
2022-10-06T02:36:00.415Z,101524
2022-10-06T02:37:00.324Z,101525
2022-10-06T02:38:00.309Z,101525
2022-10-06T02:39:00.351Z,101525
2022-10-06T02:40:00.524Z,101525
2022-10-06T02:41:00.678Z,101525
2022-10-06T02:42:00.282Z,101535
2022-10-06T02:43:00.279Z,101535
2022-10-06T02:44:00.311Z,101535
2022-10-06T02:45:00.508Z,101535
2022-10-06T02:46:02.750Z,101535
2022-10-06T02:47:00.302Z,101537
2022-10-06T02:48:00.308Z,101537
2022-10-06T02:49:00.367Z,101537
2022-10-06T02:50:00.865Z,101537
2022-10-06T02:51:02.110Z,101537
2022-10-06T02:52:00.301Z,101537
2022-10-06T02:53:00.285Z,101537
2022-10-06T02:54:00.288Z,101537
2022-10-06T02:55:01.360Z,101537
2022-10-06T02:56:01.856Z,101537
2022-10-06T02:57:00.280Z,101544
2022-10-06T02:58:00.523Z,101544
2022-10-06T02:59:00.292Z,101544
2022-10-06T03:00:00.414Z,101544
2022-10-06T03:01:01.325Z,101544
2022-10-06T03:02:00.416Z,101545
2022-10-06T03:03:00.337Z,101545
2022-10-06T03:04:00.294Z,101545
2022-10-06T03:05:00.527Z,101545
2022-10-06T03:06:04.732Z,101545
2022-10-06T03:07:00.274Z,101559
2022-10-06T03:08:00.286Z,101559
2022-10-06T03:09:01.562Z,101559
2022-10-06T03:10:00.303Z,101559
2022-10-06T03:11:01.577Z,101559
2022-10-06T03:12:00.409Z,101574
2022-10-06T03:13:00.309Z,101574
2022-10-06T03:14:00.365Z,101574
2022-10-06T03:15:00.276Z,101574
2022-10-06T03:16:00.382Z,101574
2022-10-06T03:17:00.277Z,101582
2022-10-06T03:18:00.703Z,101582
2022-10-06T03:19:00.557Z,101582
2022-10-06T03:20:00.328Z,101582
2022-10-06T03:21:00.383Z,101582
2022-10-06T03:22:01.010Z,101590
2022-10-06T03:23:00.304Z,101590
2022-10-06T03:24:00.435Z,101590
2022-10-06T03:25:00.320Z,101590
2022-10-06T03:26:00.449Z,101590
2022-10-06T03:27:00.298Z,101588
2022-10-06T03:28:00.358Z,101588
2022-10-06T03:29:00.717Z,101588
2022-10-06T03:30:00.294Z,101588
2022-10-06T03:31:01.351Z,101588
2022-10-06T03:32:00.318Z,101597
2022-10-06T03:33:00.403Z,101597
2022-10-06T03:34:00.332Z,101597
2022-10-06T03:35:00.328Z,101597
2022-10-06T03:36:01.603Z,101597
2022-10-06T03:37:00.322Z,101599
2022-10-06T03:38:00.332Z,101599
2022-10-06T03:39:01.438Z,101599
2022-10-06T03:40:00.331Z,101599
2022-10-06T03:41:06.888Z,101599
2022-10-06T03:42:00.366Z,101607
2022-10-06T03:43:00.340Z,101607
2022-10-06T03:44:00.668Z,101607
2022-10-06T03:45:00.391Z,101607
2022-10-06T03:46:00.877Z,101607
2022-10-06T03:47:00.444Z,101612
2022-10-06T03:48:00.359Z,101612
2022-10-06T03:49:00.515Z,101612
2022-10-06T03:50:00.541Z,101612
2022-10-06T03:51:01.429Z,101612
2022-10-06T03:52:00.547Z,101619
2022-10-06T03:53:00.394Z,101619
2022-10-06T03:54:00.402Z,101619
2022-10-06T03:55:00.474Z,101619
2022-10-06T03:56:01.611Z,101619
2022-10-06T03:57:00.350Z,101628
2022-10-06T03:58:00.337Z,101628
2022-10-06T03:59:01.647Z,101628
2022-10-06T04:00:00.402Z,101628
2022-10-06T04:01:01.256Z,101628
2022-10-06T04:02:00.363Z,101637
2022-10-06T04:03:00.347Z,101637
2022-10-06T04:04:00.745Z,101637
2022-10-06T04:05:00.330Z,101637
2022-10-06T04:06:01.425Z,101637
2022-10-06T04:07:00.346Z,101643
2022-10-06T04:08:00.317Z,101643
2022-10-06T04:09:00.356Z,101643
2022-10-06T04:10:00.345Z,101643
2022-10-06T04:11:09.302Z,101643
2022-10-06T04:12:00.316Z,101639
2022-10-06T04:13:00.297Z,101639
2022-10-06T04:14:02.989Z,101639
2022-10-06T04:15:00.491Z,101639
2022-10-06T04:16:10.269Z,101639
2022-10-06T04:17:00.324Z,101640
2022-10-06T04:18:00.304Z,101640
2022-10-06T04:19:01.713Z,101640
2022-10-06T04:20:00.308Z,101640
2022-10-06T04:21:00.311Z,101640
2022-10-06T04:22:00.306Z,101642
2022-10-06T04:23:00.299Z,101642
2022-10-06T04:24:00.340Z,101642
2022-10-06T04:25:00.400Z,101642
2022-10-06T04:26:00.365Z,101642
2022-10-06T04:27:00.360Z,101651
2022-10-06T04:28:00.364Z,101651
2022-10-06T04:29:00.380Z,101651
2022-10-06T04:30:00.343Z,101651
2022-10-06T04:31:00.880Z,101651
2022-10-06T04:32:00.415Z,101658
2022-10-06T04:33:00.389Z,101658
2022-10-06T04:34:00.742Z,101658
2022-10-06T04:35:00.332Z,101658
2022-10-06T04:36:01.651Z,101658
2022-10-06T04:37:00.353Z,101670
2022-10-06T04:38:00.354Z,101670
2022-10-06T04:39:01.347Z,101670
2022-10-06T04:40:00.332Z,101670
2022-10-06T04:41:10.167Z,101670
2022-10-06T04:42:00.296Z,101668
2022-10-06T04:43:00.302Z,101668
2022-10-06T04:44:00.915Z,101668
2022-10-06T04:45:00.395Z,101668
2022-10-06T04:46:13.110Z,101668
2022-10-06T04:47:00.416Z,101674
2022-10-06T04:48:00.311Z,101674
2022-10-06T04:49:00.474Z,101674
2022-10-06T04:50:00.334Z,101674
2022-10-06T04:51:01.594Z,101674
2022-10-06T04:52:00.348Z,101682
2022-10-06T04:53:00.306Z,101682
2022-10-06T04:54:00.340Z,101682
2022-10-06T04:55:00.343Z,101682
2022-10-06T04:56:03.598Z,101682
2022-10-06T04:57:00.498Z,101678
2022-10-06T04:58:00.317Z,101678
2022-10-06T04:59:00.343Z,101678
2022-10-06T05:00:05.489Z,101678
2022-10-06T05:01:01.055Z,101678
2022-10-06T05:02:00.398Z,101677
2022-10-06T05:03:00.318Z,101677
2022-10-06T05:04:01.563Z,101677
2022-10-06T05:05:00.255Z,101677
2022-10-06T05:06:02.758Z,101677
2022-10-06T05:07:00.349Z,101680
2022-10-06T05:08:00.991Z,101680
2022-10-06T05:09:01.920Z,101680
2022-10-06T05:10:00.275Z,101680
2022-10-06T05:11:02.466Z,101680
2022-10-06T05:12:00.287Z,101689
2022-10-06T05:13:00.351Z,101689
2022-10-06T05:14:00.375Z,101689
2022-10-06T05:15:00.304Z,101689
2022-10-06T05:16:00.850Z,101689
2022-10-06T05:17:00.273Z,101693
2022-10-06T05:18:00.264Z,101693
2022-10-06T05:19:00.264Z,101693
2022-10-06T05:20:00.466Z,101693
2022-10-06T05:21:06.357Z,101693
2022-10-06T05:22:00.310Z,101708
2022-10-06T05:23:00.285Z,101708
2022-10-06T05:24:00.417Z,101708
2022-10-06T05:25:00.284Z,101708
2022-10-06T05:26:00.342Z,101708
2022-10-06T05:27:01.820Z,101720
2022-10-06T05:28:00.347Z,101720
2022-10-06T05:29:00.824Z,101720
2022-10-06T05:30:00.287Z,101720
2022-10-06T05:31:00.278Z,101720
2022-10-06T05:32:00.344Z,101721
2022-10-06T05:33:00.295Z,101721
2022-10-06T05:34:00.276Z,101721
2022-10-06T05:35:00.275Z,101721
2022-10-06T05:36:04.506Z,101721
2022-10-06T05:37:00.287Z,101729
2022-10-06T05:38:00.284Z,101729
2022-10-06T05:39:00.874Z,101729
2022-10-06T05:40:00.324Z,101729
2022-10-06T05:41:01.023Z,101729
2022-10-06T05:42:00.278Z,101735
2022-10-06T05:43:00.287Z,101735
2022-10-06T05:44:00.480Z,101735
2022-10-06T05:45:00.269Z,101735
2022-10-06T05:46:01.777Z,101735
2022-10-06T05:47:00.295Z,101740
2022-10-06T05:48:00.332Z,101740
2022-10-06T05:49:02.051Z,101740
2022-10-06T05:50:00.355Z,101740
2022-10-06T05:51:02.392Z,101740
2022-10-06T05:52:00.274Z,101748
2022-10-06T05:53:00.274Z,101748
2022-10-06T05:54:00.817Z,101748
2022-10-06T05:55:00.371Z,101748
2022-10-06T05:56:03.556Z,101748
2022-10-06T05:57:00.354Z,101750
2022-10-06T05:58:00.310Z,101750
2022-10-06T05:59:00.586Z,101750
2022-10-06T06:00:00.319Z,101750
2022-10-06T06:01:10.196Z,101750
2022-10-06T06:02:00.468Z,101746
2022-10-06T06:03:00.354Z,101746
2022-10-06T06:04:01.867Z,101746
2022-10-06T06:05:00.324Z,101746
2022-10-06T06:06:00.325Z,101746
2022-10-06T06:07:00.283Z,101752
2022-10-06T06:08:00.277Z,101752
2022-10-06T06:09:02.397Z,101752
2022-10-06T06:10:00.278Z,101752
2022-10-06T06:11:07.776Z,101752
2022-10-06T06:12:00.513Z,101760
2022-10-06T06:13:00.271Z,101760
2022-10-06T06:14:01.261Z,101760
2022-10-06T06:15:00.284Z,101760
2022-10-06T06:16:01.163Z,101760
2022-10-06T06:17:00.431Z,101771
2022-10-06T06:18:00.297Z,101771
2022-10-06T06:19:00.666Z,101771
2022-10-06T06:20:00.299Z,101771
2022-10-06T06:21:01.466Z,101771
2022-10-06T06:22:00.275Z,101769
2022-10-06T06:23:00.278Z,101769
2022-10-06T06:24:01.422Z,101769
2022-10-06T06:25:00.438Z,101769
2022-10-06T06:26:02.649Z,101769
2022-10-06T06:27:00.326Z,101775
2022-10-06T06:28:00.373Z,101775
2022-10-06T06:29:00.568Z,101775
2022-10-06T06:30:00.277Z,101775
2022-10-06T06:31:04.949Z,101775
2022-10-06T06:32:00.356Z,101773
2022-10-06T06:33:00.286Z,101773
2022-10-06T06:34:00.784Z,101773
2022-10-06T06:35:00.284Z,101773
2022-10-06T06:36:00.451Z,101773
2022-10-06T06:37:06.762Z,101783
2022-10-06T06:38:00.301Z,101783
2022-10-06T06:39:02.596Z,101783
2022-10-06T06:40:00.309Z,101783
2022-10-06T06:41:00.274Z,101783
2022-10-06T06:42:00.311Z,101786
2022-10-06T06:43:00.267Z,101786
2022-10-06T06:44:00.293Z,101786
2022-10-06T06:45:00.279Z,101786
2022-10-06T06:46:02.158Z,101786
2022-10-06T06:47:00.287Z,101792
2022-10-06T06:48:00.274Z,101792
2022-10-06T06:49:01.189Z,101792
2022-10-06T06:50:00.374Z,101792
2022-10-06T06:51:00.331Z,101792
2022-10-06T06:52:00.270Z,101796
2022-10-06T06:53:00.304Z,101796
2022-10-06T06:54:00.378Z,101796
2022-10-06T06:55:00.290Z,101796
2022-10-06T06:56:00.390Z,101796
2022-10-06T06:57:00.393Z,101796
2022-10-06T06:58:00.306Z,101796
2022-10-06T06:59:00.931Z,101796
2022-10-06T07:00:00.359Z,101796
2022-10-06T07:01:04.673Z,101796
2022-10-06T07:02:00.331Z,101804
2022-10-06T07:03:00.259Z,101804
2022-10-06T07:04:00.312Z,101804
2022-10-06T07:05:00.307Z,101804
2022-10-06T07:06:04.226Z,101804
2022-10-06T07:07:00.273Z,101810
2022-10-06T07:08:00.270Z,101810
2022-10-06T07:09:00.295Z,101810
2022-10-06T07:10:00.365Z,101810
2022-10-06T07:11:09.131Z,101810
2022-10-06T07:12:00.286Z,101812
2022-10-06T07:13:00.264Z,101812
2022-10-06T07:14:02.586Z,101812
2022-10-06T07:15:00.351Z,101812
2022-10-06T07:16:00.328Z,101812
2022-10-06T07:17:00.279Z,101822
2022-10-06T07:18:01.572Z,101822
2022-10-06T07:19:00.864Z,101822
2022-10-06T07:20:00.293Z,101822
2022-10-06T07:21:00.381Z,101822
2022-10-06T07:22:02.380Z,101823
2022-10-06T07:23:00.302Z,101823
2022-10-06T07:24:00.286Z,101823
2022-10-06T07:25:02.132Z,101823
2022-10-06T07:26:00.281Z,101823
2022-10-06T07:27:00.312Z,101825
2022-10-06T07:28:00.347Z,101825
2022-10-06T07:29:00.308Z,101825
2022-10-06T07:30:00.426Z,101825
2022-10-06T07:31:00.400Z,101825
2022-10-06T07:32:00.277Z,101840
2022-10-06T07:33:00.281Z,101840
2022-10-06T07:34:00.447Z,101840
2022-10-06T07:35:00.319Z,101840
2022-10-06T07:36:01.170Z,101840
2022-10-06T07:37:04.059Z,101838
2022-10-06T07:38:01.034Z,101838
2022-10-06T07:39:00.260Z,101838
2022-10-06T07:40:00.458Z,101838
2022-10-06T07:41:18.419Z,101838
2022-10-06T07:42:00.281Z,101841
2022-10-06T07:43:00.286Z,101841
2022-10-06T07:44:02.541Z,101841
2022-10-06T07:45:00.318Z,101841
2022-10-06T07:46:00.371Z,101841
2022-10-06T07:47:00.304Z,101846
2022-10-06T07:48:00.855Z,101846
2022-10-06T07:49:00.285Z,101846
2022-10-06T07:50:00.364Z,101846
2022-10-06T07:51:00.267Z,101846
2022-10-06T07:52:00.666Z,101853
2022-10-06T07:53:00.305Z,101853
2022-10-06T07:54:00.721Z,101853
2022-10-06T07:55:00.290Z,101853
2022-10-06T07:56:04.387Z,101853
2022-10-06T07:57:00.270Z,101864
2022-10-06T07:58:00.269Z,101864
2022-10-06T07:59:00.351Z,101864
2022-10-06T08:00:03.367Z,101864
2022-10-06T08:01:04.947Z,101864
2022-10-06T08:02:00.324Z,101860
2022-10-06T08:03:00.376Z,101860
2022-10-06T08:04:00.272Z,101860
2022-10-06T08:05:00.324Z,101860
2022-10-06T08:06:00.694Z,101860
2022-10-06T08:07:00.518Z,101858
2022-10-06T08:08:00.320Z,101858
2022-10-06T08:09:00.667Z,101858
2022-10-06T08:10:00.358Z,101858
2022-10-06T08:11:01.490Z,101858
2022-10-06T08:12:00.342Z,101859
2022-10-06T08:13:03.335Z,101859
2022-10-06T08:14:00.278Z,101859
2022-10-06T08:15:02.946Z,101859
2022-10-06T08:16:04.769Z,101859
2022-10-06T08:17:00.279Z,101865
2022-10-06T08:18:01.292Z,101865
2022-10-06T08:19:00.304Z,101865
2022-10-06T08:20:00.310Z,101865
2022-10-06T08:21:06.959Z,101865
2022-10-06T08:22:04.676Z,101866
2022-10-06T08:23:00.328Z,101866
2022-10-06T08:24:00.599Z,101866
2022-10-06T08:25:06.250Z,101866
2022-10-06T08:26:00.273Z,101866
2022-10-06T08:27:00.287Z,101874
2022-10-06T08:28:00.317Z,101874
2022-10-06T08:29:00.630Z,101874
2022-10-06T08:30:00.639Z,101874
2022-10-06T08:31:04.602Z,101874
2022-10-06T08:32:00.440Z,101875
2022-10-06T08:33:00.291Z,101875
2022-10-06T08:34:00.292Z,101875
2022-10-06T08:35:00.364Z,101875
2022-10-06T08:36:02.770Z,101875
2022-10-06T08:37:19.308Z,101884
2022-10-06T08:38:00.748Z,101884
2022-10-06T08:39:00.291Z,101884
2022-10-06T08:40:00.342Z,101884
2022-10-06T08:41:00.400Z,101884
2022-10-06T08:42:00.319Z,101880
2022-10-06T08:43:01.230Z,101880
2022-10-06T08:44:04.446Z,101880
2022-10-06T08:45:02.631Z,101880
2022-10-06T08:46:02.643Z,101880
2022-10-06T08:47:02.787Z,101886
2022-10-06T08:48:03.196Z,101886
2022-10-06T08:49:00.508Z,101886
2022-10-06T08:50:02.458Z,101886
2022-10-06T08:51:00.273Z,101886
2022-10-06T08:52:03.545Z,101881
2022-10-06T08:53:14.119Z,101881
2022-10-06T08:54:07.670Z,101881
2022-10-06T08:55:10.219Z,101881
2022-10-06T08:56:10.197Z,101881
2022-10-06T08:57:03.559Z,101879
2022-10-06T08:58:00.289Z,101879
2022-10-06T08:59:01.715Z,101879
2022-10-06T09:00:00.425Z,101879
2022-10-06T09:01:10.294Z,101879
2022-10-06T09:02:00.387Z,101881
2022-10-06T09:03:00.908Z,101881
2022-10-06T09:04:02.580Z,101881
2022-10-06T09:05:01.576Z,101881
2022-10-06T09:06:06.372Z,101881
2022-10-06T09:07:00.353Z,101885
2022-10-06T09:08:01.315Z,101885
2022-10-06T09:09:10.190Z,101885
2022-10-06T09:10:01.304Z,101885
2022-10-06T09:11:10.244Z,101885
2022-10-06T09:12:10.179Z,101885
2022-10-06T09:13:03.799Z,101885
2022-10-06T09:14:03.517Z,101885
2022-10-06T09:15:10.181Z,101885
2022-10-06T09:16:03.064Z,101885
2022-10-06T09:17:02.161Z,101888
2022-10-06T09:18:10.190Z,101888
2022-10-06T09:19:10.182Z,101888
2022-10-06T09:20:02.513Z,101888
2022-10-06T09:21:01.447Z,101888
2022-10-06T09:22:01.908Z,101883
2022-10-06T09:23:01.076Z,101883
2022-10-06T09:24:05.075Z,101883
2022-10-06T09:25:10.185Z,101883
2022-10-06T09:26:01.136Z,101883
2022-10-06T09:27:10.172Z,101895
2022-10-06T09:28:00.980Z,101895
2022-10-06T09:29:00.765Z,101895
2022-10-06T09:30:00.798Z,101895
2022-10-06T09:31:00.722Z,101895
2022-10-06T09:32:00.397Z,101901
2022-10-06T09:33:02.185Z,101901
2022-10-06T09:34:03.062Z,101901
2022-10-06T09:35:00.303Z,101901
2022-10-06T09:36:02.267Z,101901
2022-10-06T09:37:02.655Z,101901
2022-10-06T09:38:07.087Z,101901
2022-10-06T09:39:00.314Z,101901
2022-10-06T09:40:00.446Z,101901
2022-10-06T09:41:00.369Z,101901
2022-10-06T09:42:01.328Z,101904
2022-10-06T09:43:01.252Z,101904
2022-10-06T09:44:03.580Z,101904
2022-10-06T09:45:01.303Z,101904
2022-10-06T09:47:00.290Z,101901
2022-10-06T09:48:10.172Z,101901
2022-10-06T09:49:10.324Z,101901
2022-10-06T09:50:01.354Z,101901
2022-10-06T09:51:10.185Z,101901
2022-10-06T09:52:03.276Z,101899
2022-10-06T09:53:02.320Z,101899
2022-10-06T09:54:08.874Z,101899
2022-10-06T09:55:09.071Z,101899
2022-10-06T09:56:01.761Z,101899
2022-10-06T09:57:06.724Z,101896
2022-10-06T09:58:00.475Z,101896
2022-10-06T09:59:00.309Z,101896
2022-10-06T10:00:00.609Z,101896
2022-10-06T10:01:02.136Z,101896
2022-10-06T10:02:00.884Z,101902
2022-10-06T10:03:02.979Z,101902
2022-10-06T10:04:20.053Z,101902
2022-10-06T10:05:00.440Z,101902
2022-10-06T10:06:00.342Z,101902
2022-10-06T10:07:10.183Z,101907
2022-10-06T10:08:02.217Z,101907
2022-10-06T10:09:10.264Z,101907
2022-10-06T10:10:10.200Z,101907
2022-10-06T10:11:07.776Z,101907
2022-10-06T10:12:00.376Z,101898
2022-10-06T10:13:00.430Z,101898
2022-10-06T10:14:00.389Z,101898
2022-10-06T10:15:00.249Z,101898
2022-10-06T10:16:02.014Z,101898
2022-10-06T10:17:05.876Z,101884
2022-10-06T10:18:01.786Z,101884
2022-10-06T10:19:01.411Z,101884
2022-10-06T10:20:01.052Z,101884
2022-10-06T10:21:02.212Z,101884
2022-10-06T10:22:01.423Z,101883
2022-10-06T10:23:10.180Z,101883
2022-10-06T10:24:02.065Z,101883
2022-10-06T10:25:05.008Z,101883
2022-10-06T10:26:10.172Z,101883
2022-10-06T10:27:07.271Z,101878
2022-10-06T10:28:10.232Z,101878
2022-10-06T10:29:05.382Z,101878
2022-10-06T10:30:06.222Z,101878
2022-10-06T10:31:07.161Z,101878
2022-10-06T10:32:01.329Z,101882
2022-10-06T10:33:06.843Z,101882
2022-10-06T10:34:12.561Z,101882
2022-10-06T10:35:09.566Z,101882
2022-10-06T10:36:02.164Z,101882
2022-10-06T10:37:04.315Z,101878
2022-10-06T10:38:14.527Z,101878
2022-10-06T10:39:00.666Z,101878
2022-10-06T10:40:10.193Z,101878
2022-10-06T10:41:00.241Z,101878
2022-10-06T10:42:03.287Z,101875
2022-10-06T10:43:05.792Z,101875
2022-10-06T10:44:08.249Z,101875
2022-10-06T10:45:01.167Z,101875
2022-10-06T10:46:10.289Z,101875
2022-10-06T10:47:05.162Z,101874
2022-10-06T10:48:03.932Z,101874
2022-10-06T10:49:08.685Z,101874
2022-10-06T10:50:03.510Z,101874
2022-10-06T10:51:04.044Z,101874
2022-10-06T10:52:07.659Z,101877
2022-10-06T10:53:06.668Z,101877
2022-10-06T10:54:03.734Z,101877
2022-10-06T10:55:10.206Z,101877
2022-10-06T10:56:00.772Z,101877
2022-10-06T10:57:00.433Z,101875
2022-10-06T10:58:06.641Z,101875
2022-10-06T10:59:09.924Z,101875
2022-10-06T11:00:02.351Z,101875
2022-10-06T11:01:04.083Z,101875
2022-10-06T11:02:10.233Z,101890
2022-10-06T11:03:00.292Z,101890
2022-10-06T11:04:00.476Z,101890
2022-10-06T11:05:03.853Z,101890
2022-10-06T11:06:09.130Z,101890
2022-10-06T11:07:08.826Z,101891
2022-10-06T11:08:10.170Z,101891
2022-10-06T11:09:02.155Z,101891
2022-10-06T11:10:10.197Z,101891
2022-10-06T11:11:03.511Z,101891
2022-10-06T11:12:00.252Z,101895
2022-10-06T11:13:10.166Z,101895
2022-10-06T11:14:01.665Z,101895
2022-10-06T11:15:10.192Z,101895
2022-10-06T11:16:10.216Z,101895
2022-10-06T11:17:08.096Z,101885
2022-10-06T11:18:09.865Z,101885
2022-10-06T11:19:10.248Z,101885
2022-10-06T11:20:00.259Z,101885
2022-10-06T11:21:09.484Z,101885
2022-10-06T11:22:10.165Z,101887
2022-10-06T11:23:10.170Z,101887
2022-10-06T11:24:00.253Z,101887
2022-10-06T11:25:10.191Z,101887
2022-10-06T11:26:10.165Z,101887
2022-10-06T11:27:03.619Z,101886
2022-10-06T11:28:10.234Z,101886
2022-10-06T11:29:10.161Z,101886
2022-10-06T11:30:04.544Z,101886
2022-10-06T11:31:07.825Z,101886
2022-10-06T11:32:00.348Z,101876
2022-10-06T11:33:01.315Z,101876
2022-10-06T11:34:01.455Z,101876
2022-10-06T11:35:00.740Z,101876
2022-10-06T11:36:01.628Z,101876
2022-10-06T11:37:10.181Z,101876
2022-10-06T11:38:06.695Z,101876
2022-10-06T11:39:06.489Z,101876
2022-10-06T11:40:10.228Z,101876
2022-10-06T11:41:00.244Z,101876
2022-10-06T11:42:01.267Z,101878
2022-10-06T11:43:00.291Z,101878
2022-10-06T11:44:00.357Z,101878
2022-10-06T11:45:02.960Z,101878
2022-10-06T11:46:01.341Z,101878
2022-10-06T11:47:03.045Z,101867
2022-10-06T11:48:03.657Z,101867
2022-10-06T11:49:10.238Z,101867
2022-10-06T11:50:00.551Z,101867
2022-10-06T11:51:10.176Z,101867
2022-10-06T11:52:10.197Z,101868
2022-10-06T11:53:00.293Z,101868
2022-10-06T11:54:00.364Z,101868
2022-10-06T11:55:10.197Z,101868
2022-10-06T11:56:10.175Z,101868
2022-10-06T11:57:00.285Z,101868
2022-10-06T11:58:12.584Z,101868
2022-10-06T11:59:07.752Z,101868
2022-10-06T12:00:01.308Z,101868
2022-10-06T12:01:00.275Z,101868
2022-10-06T12:02:00.895Z,101869
2022-10-06T12:03:10.259Z,101869
2022-10-06T12:04:07.748Z,101869
2022-10-06T12:05:28.444Z,101869
2022-10-06T12:06:00.283Z,101869
2022-10-06T12:07:00.841Z,101863
2022-10-06T12:08:00.252Z,101863
2022-10-06T12:09:00.289Z,101863
2022-10-06T12:10:10.258Z,101863
2022-10-06T12:11:00.332Z,101863
2022-10-06T12:12:05.545Z,101866
2022-10-06T12:13:11.366Z,101866
2022-10-06T12:15:17.850Z,101866
2022-10-06T12:17:08.608Z,101866
2022-10-06T12:17:13.007Z,101846
2022-10-06T12:18:00.250Z,101846
2022-10-06T12:19:03.604Z,101846
2022-10-06T12:20:10.364Z,101846
2022-10-06T12:21:09.873Z,101846
2022-10-06T12:22:01.412Z,101850
2022-10-06T12:23:07.662Z,101850
2022-10-06T12:24:10.211Z,101850
2022-10-06T12:25:09.072Z,101850
2022-10-06T12:26:04.901Z,101850
2022-10-06T12:27:07.798Z,101845
2022-10-06T12:28:10.231Z,101845
2022-10-06T12:29:01.287Z,101845
2022-10-06T12:30:10.182Z,101845